Copy current information ATIS (Automatic Terminal Information Service)

ATIS KOPF

A - KOPF 171653Z 09010KT 10SM SKC 27/15 A3014 - 9L, 12, 9R
B - KOPF 171653Z 27010KT 10SM SKC 27/15 A3014 - 27L, 30, 27R
C - KOPF 171653Z 36010KT 10SM SKC 27/15 A3014 - 9L, 12, 9R
D - KOPF 171653Z 18010KT 10SM SKC 27/15 A3014 - 27L, 30, 27R

1 of 56